createdAt,value
2022-12-10T00:01:29.404Z,100996.41
2022-12-10T00:03:30.850Z,100992.09
2022-12-10T00:05:35.174Z,100995.56
2022-12-10T00:07:36.652Z,100992.09
2022-12-10T00:09:39.358Z,101001.63
2022-12-10T00:11:41.171Z,100997.28
2022-12-10T00:13:44.487Z,101001.59
2022-12-10T00:15:45.915Z,101000.66
2022-12-10T00:17:47.383Z,101003.25
2022-12-10T00:19:48.810Z,101010.19
2022-12-10T00:21:50.329Z,101006.69
2022-12-10T00:23:52.330Z,101002.38
2022-12-10T00:25:53.784Z,101007.53
2022-12-10T00:27:55.288Z,100999.75
2022-12-10T00:29:56.741Z,101002.34
2022-12-10T00:31:58.202Z,100996.28
2022-12-10T00:34:02.907Z,100994.50
2022-12-10T00:36:14.034Z,100997.06
2022-12-10T00:38:15.553Z,100984.88
2022-12-10T00:40:17.118Z,100996.97
2022-12-10T00:42:18.590Z,100994.41
2022-12-10T00:44:20.041Z,101001.34
2022-12-10T00:46:21.565Z,101000.44
2022-12-10T00:48:23.166Z,101009.84
2022-12-10T00:50:24.621Z,101002.00
2022-12-10T00:52:26.126Z,101007.22
2022-12-10T00:54:27.589Z,101007.25
2022-12-10T00:56:33.256Z,101004.69
2022-12-10T00:58:36.306Z,101003.00
2022-12-10T01:00:37.805Z,101002.13
2022-12-10T01:02:39.280Z,101004.69
2022-12-10T01:04:40.728Z,101002.06
2022-12-10T01:06:54.195Z,101007.28
2022-12-10T01:08:58.489Z,101011.63
2022-12-10T01:10:59.948Z,101014.25
2022-12-10T01:13:07.560Z,101012.56
2022-12-10T01:15:09.631Z,101016.00
2022-12-10T01:17:11.130Z,101018.63
2022-12-10T01:19:13.035Z,101021.25
2022-12-10T01:21:20.472Z,101023.88
2022-12-10T01:23:21.910Z,101023.88
2022-12-10T01:25:23.420Z,101019.56
2022-12-10T01:27:24.887Z,101022.16
2022-12-10T01:29:27.609Z,101028.25
2022-12-10T01:31:35.377Z,101033.41
2022-12-10T01:33:37.568Z,101023.03
2022-12-10T01:35:39.109Z,101036.06
2022-12-10T01:37:40.585Z,101031.72
2022-12-10T01:39:42.043Z,101036.94
2022-12-10T01:41:50.090Z,101037.78
2022-12-10T01:44:09.590Z,101035.16
2022-12-10T01:46:11.042Z,101048.03
2022-12-10T01:48:12.740Z,101044.56
2022-12-10T01:50:14.310Z,101047.09
2022-12-10T01:52:15.875Z,101057.47
2022-12-10T01:54:26.711Z,101048.88
2022-12-10T01:56:28.943Z,101054.09
2022-12-10T01:58:31.026Z,101053.28
2022-12-10T02:00:38.675Z,101056.78
2022-12-10T02:02:53.369Z,101062.00
2022-12-10T02:05:14.131Z,101055.09
2022-12-10T02:07:27.615Z,101064.66
2022-12-10T02:09:35.323Z,101062.91
2022-12-10T02:11:56.474Z,101058.63
2022-12-10T02:14:06.454Z,101058.63
2022-12-10T02:16:41.141Z,101058.63
2022-12-10T02:19:03.823Z,101056.03
2022-12-10T02:21:13.239Z,101059.44
2022-12-10T02:23:22.754Z,101055.97
2022-12-10T02:25:31.359Z,101057.69
2022-12-10T02:27:55.562Z,101056.00
2022-12-10T02:30:00.468Z,101058.63
2022-12-10T02:32:21.406Z,101060.41
2022-12-10T02:34:26.082Z,101055.22
2022-12-10T02:36:32.885Z,101056.94
2022-12-10T02:38:38.155Z,101049.97
2022-12-10T02:40:44.302Z,101059.56
2022-12-10T02:42:49.552Z,101065.59
2022-12-10T02:44:53.120Z,101063.81
2022-12-10T02:46:57.684Z,101069.88
2022-12-10T02:49:01.909Z,101067.28
2022-12-10T02:51:03.575Z,101056.03
2022-12-10T02:53:05.112Z,101061.28
2022-12-10T02:55:06.818Z,101068.28
2022-12-10T02:57:21.230Z,101065.69
2022-12-10T02:59:34.089Z,101067.47
2022-12-10T03:01:58.804Z,101067.47
2022-12-10T03:04:23.895Z,101065.75
2022-12-10T03:06:43.177Z,101077.03
2022-12-10T03:09:02.397Z,101070.09
2022-12-10T03:11:27.051Z,101070.84
2022-12-10T03:13:33.492Z,101069.88
2022-12-10T03:15:38.515Z,101056.94
2022-12-10T03:17:42.663Z,101059.56
2022-12-10T03:19:48.818Z,101064.81
2022-12-10T03:21:52.450Z,101061.38
2022-12-10T03:23:53.978Z,101063.06
2022-12-10T03:25:55.672Z,101058.75
2022-12-10T03:27:59.903Z,101057.00
2022-12-10T03:30:01.766Z,101062.06
2022-12-10T03:32:04.004Z,101063.78
2022-12-10T03:34:07.091Z,101071.63
2022-12-10T03:36:09.398Z,101065.66
2022-12-10T03:38:11.194Z,101063.88
2022-12-10T03:40:13.626Z,101063.06
2022-12-10T03:42:15.299Z,101064.81
2022-12-10T03:44:29.588Z,101062.28
2022-12-10T03:46:32.642Z,101053.63
2022-12-10T03:48:34.065Z,101051.91
2022-12-10T03:50:35.555Z,101051.03
2022-12-10T03:52:37.220Z,101046.69
2022-12-10T03:54:38.702Z,101057.06
2022-12-10T03:56:40.156Z,101053.63
2022-12-10T03:58:41.599Z,101049.31
2022-12-10T04:00:43.196Z,101051.94
2022-12-10T04:02:44.755Z,101049.34
2022-12-10T04:04:46.374Z,101051.09
2022-12-10T04:06:47.989Z,101051.97
2022-12-10T04:08:51.901Z,101049.38
2022-12-10T04:11:10.172Z,101053.75
2022-12-10T04:13:29.994Z,101053.72
2022-12-10T04:15:49.792Z,101057.19
2022-12-10T04:17:51.237Z,101055.41
2022-12-10T04:19:52.804Z,101062.31
2022-12-10T04:22:12.612Z,101064.91
2022-12-10T04:24:33.805Z,101058.88
2022-12-10T04:26:53.133Z,101048.50
2022-12-10T04:28:54.575Z,101051.97
2022-12-10T04:30:56.108Z,101058.94
2022-12-10T04:32:57.581Z,101053.72
2022-12-10T04:34:59.502Z,101052.84
2022-12-10T04:37:02.002Z,101054.59
2022-12-10T04:39:04.035Z,101054.59
2022-12-10T04:41:16.250Z,101045.06
2022-12-10T04:43:17.696Z,101051.13
2022-12-10T04:45:19.214Z,101048.56
2022-12-10T04:47:20.968Z,101045.09
2022-12-10T04:49:22.665Z,101047.72
2022-12-10T04:51:24.143Z,101042.53
2022-12-10T04:53:25.612Z,101052.94
2022-12-10T04:55:27.094Z,101039.91
2022-12-10T04:57:28.532Z,101049.47
2022-12-10T04:59:30.019Z,101043.38
2022-12-10T05:01:31.904Z,101045.13
2022-12-10T05:03:33.499Z,101044.25
2022-12-10T05:05:35.804Z,101043.38
2022-12-10T05:07:37.278Z,101049.47
2022-12-10T05:09:39.015Z,101056.38
2022-12-10T05:11:40.655Z,101048.56
2022-12-10T05:13:42.669Z,101041.56
2022-12-10T05:15:44.151Z,101046.75
2022-12-10T05:17:45.680Z,101042.41
2022-12-10T05:19:47.128Z,101045.75
2022-12-10T05:22:07.298Z,101053.53
2022-12-10T05:24:08.843Z,101044.91
2022-12-10T05:26:11.826Z,101046.66
2022-12-10T05:28:13.250Z,101039.78
2022-12-10T05:30:14.778Z,101040.66
2022-12-10T05:32:16.236Z,101044.09
2022-12-10T05:34:17.673Z,101048.44
2022-12-10T05:36:24.137Z,101044.97
2022-12-10T05:38:26.591Z,101039.78
2022-12-10T05:40:28.052Z,101045.88
2022-12-10T05:42:29.489Z,101049.31
2022-12-10T05:44:30.957Z,101054.47
2022-12-10T05:46:34.735Z,101054.47
2022-12-10T05:48:37.073Z,101056.22
2022-12-10T05:50:38.955Z,101064.81
2022-12-10T05:52:40.395Z,101066.47
2022-12-10T05:54:41.961Z,101060.38
2022-12-10T05:56:43.421Z,101067.31
2022-12-10T05:58:47.069Z,101075.09
2022-12-10T06:00:48.511Z,101075.97
2022-12-10T06:02:53.172Z,101073.34
2022-12-10T06:04:54.716Z,101078.56
2022-12-10T06:06:56.187Z,101085.47
2022-12-10T06:08:58.425Z,101085.50
2022-12-10T06:11:11.670Z,101078.63
2022-12-10T06:13:13.104Z,101082.97
2022-12-10T06:15:14.543Z,101077.78
2022-12-10T06:17:16.017Z,101083.03
2022-12-10T06:19:17.461Z,101090.81
2022-12-10T06:21:19.985Z,101088.94
2022-12-10T06:23:21.424Z,101091.50
2022-12-10T06:25:22.930Z,101087.19
2022-12-10T06:27:24.379Z,101095.00
2022-12-10T06:29:25.847Z,101094.09
2022-12-10T06:31:27.452Z,101093.13
2022-12-10T06:33:28.994Z,101091.38
2022-12-10T06:35:30.514Z,101100.06
2022-12-10T06:37:31.960Z,101097.53
2022-12-10T06:39:33.416Z,101096.69
2022-12-10T06:41:34.892Z,101098.41
2022-12-10T06:43:37.094Z,101104.50
2022-12-10T06:45:42.917Z,101095.84
2022-12-10T06:47:44.396Z,101097.63
2022-12-10T06:49:45.843Z,101098.44
2022-12-10T06:51:48.518Z,101097.53
2022-12-10T06:53:49.965Z,101096.63
2022-12-10T06:55:51.489Z,101104.44
2022-12-10T06:57:53.986Z,101107.09
2022-12-10T06:59:55.431Z,101113.16
2022-12-10T07:01:57.054Z,101113.03
2022-12-10T07:03:58.816Z,101121.56
2022-12-10T07:06:02.020Z,101127.63
2022-12-10T07:08:03.616Z,101133.75
2022-12-10T07:10:06.986Z,101127.75
2022-12-10T07:12:08.581Z,101131.25
2022-12-10T07:14:16.327Z,101136.47
2022-12-10T07:16:23.486Z,101136.50
2022-12-10T07:18:25.236Z,101141.72
2022-12-10T07:20:26.691Z,101139.97
2022-12-10T07:22:28.149Z,101148.69
2022-12-10T07:24:29.622Z,101144.38
2022-12-10T07:26:33.188Z,101137.53
2022-12-10T07:28:38.401Z,101139.28
2022-12-10T07:30:43.200Z,101147.03
2022-12-10T07:32:44.647Z,101144.34
2022-12-10T07:34:46.126Z,101148.69
2022-12-10T07:36:47.577Z,101151.31
2022-12-10T07:38:49.552Z,101147.91
2022-12-10T07:40:52.200Z,101149.69
2022-12-10T07:42:53.684Z,101145.34
2022-12-10T07:44:55.241Z,101141.91
2022-12-10T07:46:57.110Z,101145.38
2022-12-10T07:49:01.409Z,101145.38
2022-12-10T07:51:03.424Z,101149.72
2022-12-10T07:53:04.879Z,101149.72
2022-12-10T07:55:06.559Z,101152.34
2022-12-10T07:57:08.086Z,101160.13
2022-12-10T07:59:09.832Z,101154.06
2022-12-10T08:01:20.143Z,101159.25
2022-12-10T08:03:21.708Z,101163.50
2022-12-10T08:05:23.202Z,101168.72
2022-12-10T08:07:24.675Z,101165.28
2022-12-10T08:09:26.119Z,101173.97
2022-12-10T08:11:28.475Z,101171.44
2022-12-10T08:13:30.261Z,101176.66
2022-12-10T08:15:32.179Z,101181.88
2022-12-10T08:17:36.158Z,101178.44
2022-12-10T08:19:37.618Z,101185.38
2022-12-10T08:21:39.110Z,101184.53
2022-12-10T08:23:41.528Z,101193.19
2022-12-10T08:25:42.999Z,101184.56
2022-12-10T08:27:44.515Z,101193.22
2022-12-10T08:29:45.951Z,101189.78
2022-12-10T08:31:47.536Z,101188.03
2022-12-10T08:33:49.078Z,101187.22
2022-12-10T08:35:50.546Z,101194.16
2022-12-10T08:37:52.070Z,101195.03
2022-12-10T08:39:53.527Z,101198.53
2022-12-10T08:41:54.973Z,101202.03
2022-12-10T08:43:56.456Z,101199.47
2022-12-10T08:45:59.458Z,101196.91
2022-12-10T08:48:02.916Z,101199.56
2022-12-10T08:50:04.914Z,101200.44
2022-12-10T08:52:06.452Z,101197.00
2022-12-10T08:54:07.896Z,101201.34
2022-12-10T08:56:09.424Z,101198.75
2022-12-10T08:58:11.350Z,101194.44
2022-12-10T09:00:14.682Z,101194.47
2022-12-10T09:02:16.236Z,101197.06
2022-12-10T09:04:17.705Z,101191.00
2022-12-10T09:06:21.484Z,101184.94
2022-12-10T09:08:22.972Z,101194.47
2022-12-10T09:10:24.499Z,101198.84
2022-12-10T09:12:25.992Z,101200.59
2022-12-10T09:14:28.279Z,101210.19
2022-12-10T09:16:37.514Z,101208.50
2022-12-10T09:18:39.425Z,101218.94
2022-12-10T09:20:40.874Z,101214.59
2022-12-10T09:22:42.318Z,101218.94
2022-12-10T09:24:43.794Z,101218.13
2022-12-10T09:26:45.267Z,101227.75
2022-12-10T09:28:48.106Z,101219.97
2022-12-10T09:31:00.214Z,101216.53
2022-12-10T09:33:02.222Z,101218.28
2022-12-10T09:35:04.869Z,101214.84
2022-12-10T09:37:06.350Z,101221.81
2022-12-10T09:39:07.782Z,101223.59
2022-12-10T09:41:12.190Z,101226.22
2022-12-10T09:43:22.801Z,101220.13
2022-12-10T09:45:53.499Z,101219.28
2022-12-10T09:48:13.359Z,101221.00
2022-12-10T09:50:22.194Z,101217.56
2022-12-10T09:52:24.751Z,101220.19
2022-12-10T09:54:33.681Z,101219.31
2022-12-10T09:56:40.834Z,101221.09
2022-12-10T09:58:42.386Z,101221.13
2022-12-10T10:00:47.788Z,101223.75
2022-12-10T10:02:51.891Z,101221.22
2022-12-10T10:05:10.797Z,101222.16
2022-12-10T10:07:21.524Z,101217.84
2022-12-10T10:09:23.003Z,101221.34
2022-12-10T10:11:29.535Z,101226.50
2022-12-10T10:13:41.276Z,101223.94
2022-12-10T10:15:45.929Z,101225.72
2022-12-10T10:17:50.498Z,101224.81
2022-12-10T10:19:51.929Z,101237.00
2022-12-10T10:21:53.430Z,101224.06
2022-12-10T10:23:55.981Z,101225.81
2022-12-10T10:25:57.510Z,101232.75
2022-12-10T10:27:59.151Z,101230.22
2022-12-10T10:30:04.678Z,101237.22
2022-12-10T10:32:24.204Z,101228.53
2022-12-10T10:34:25.634Z,101237.22
2022-12-10T10:36:33.822Z,101236.31
2022-12-10T10:38:35.892Z,101233.72
2022-12-10T10:40:37.311Z,101233.75
2022-12-10T10:42:42.244Z,101233.59
2022-12-10T10:44:43.979Z,101229.16
2022-12-10T10:46:48.469Z,101232.56
2022-12-10T10:48:50.335Z,101222.19
2022-12-10T10:51:11.578Z,101229.25
2022-12-10T10:53:31.507Z,101226.75
2022-12-10T10:55:36.695Z,101223.34
2022-12-10T10:57:38.645Z,101225.13
2022-12-10T10:59:40.437Z,101214.75
2022-12-10T11:01:54.101Z,101209.59
2022-12-10T11:03:59.185Z,101209.59
2022-12-10T11:06:01.203Z,101209.66
2022-12-10T11:08:14.051Z,101214.97
2022-12-10T11:10:25.808Z,101215.03
2022-12-10T11:12:36.647Z,101203.78
2022-12-10T11:14:46.846Z,101202.88
2022-12-10T11:16:48.378Z,101208.97
2022-12-10T11:19:05.158Z,101208.97
2022-12-10T11:21:12.629Z,101204.66
2022-12-10T11:23:14.554Z,101206.38
2022-12-10T11:25:16.118Z,101206.38
2022-12-10T11:27:40.217Z,101203.72
2022-12-10T11:30:05.710Z,101208.84
2022-12-10T11:32:22.306Z,101201.03
2022-12-10T11:34:49.934Z,101196.69
2022-12-10T11:37:12.503Z,101203.66
2022-12-10T11:39:31.531Z,101201.84
2022-12-10T11:42:21.477Z,101207.00
2022-12-10T11:44:31.009Z,101211.19
2022-12-10T11:46:51.081Z,101209.41
2022-12-10T11:49:14.363Z,101204.25
2022-12-10T11:51:35.543Z,101211.22
2022-12-10T11:54:18.474Z,101206.78
2022-12-10T11:56:44.812Z,101202.47
2022-12-10T11:59:00.304Z,101205.03
2022-12-10T12:01:29.922Z,101202.47
2022-12-10T12:03:38.458Z,101205.97
2022-12-10T12:05:42.615Z,101200.81
2022-12-10T12:08:00.147Z,101205.00
2022-12-10T12:10:31.980Z,101199.66
2022-12-10T12:12:45.830Z,101209.28
2022-12-10T12:14:56.534Z,101207.63
2022-12-10T12:17:16.177Z,101211.16
2022-12-10T12:19:26.411Z,101209.50
2022-12-10T12:21:28.249Z,101204.31
2022-12-10T12:24:04.846Z,101207.84
2022-12-10T12:26:28.455Z,101210.53
2022-12-10T12:28:37.944Z,101207.06
2022-12-10T12:30:42.658Z,101204.50
2022-12-10T12:33:02.732Z,101202.78
2022-12-10T12:35:28.247Z,101207.94
2022-12-10T12:37:58.899Z,101201.72
2022-12-10T12:40:16.237Z,101206.91
2022-12-10T12:42:34.691Z,101207.78
2022-12-10T12:45:03.817Z,101212.19
2022-12-10T12:47:37.338Z,101209.53
2022-12-10T12:49:42.438Z,101217.31
2022-12-10T12:52:21.941Z,101216.38
2022-12-10T12:54:23.708Z,101218.06
2022-12-10T12:57:05.241Z,101218.03
2022-12-10T12:59:37.587Z,101212.84
2022-12-10T13:01:45.063Z,101217.25
2022-12-10T13:03:49.324Z,101214.56
2022-12-10T13:05:51.339Z,101216.31
2022-12-10T13:08:20.999Z,101206.84
2022-12-10T13:10:26.282Z,101214.66
2022-12-10T13:12:33.788Z,101211.16
2022-12-10T13:15:02.667Z,101218.13
2022-12-10T13:17:25.951Z,101211.16
2022-12-10T13:19:30.158Z,101221.53
2022-12-10T13:21:32.878Z,101224.97
2022-12-10T13:23:52.104Z,101218.84
2022-12-10T13:25:55.950Z,101225.84
2022-12-10T13:28:16.612Z,101228.47
2022-12-10T13:30:38.308Z,101225.03
2022-12-10T13:32:39.714Z,101231.88
2022-12-10T13:34:41.284Z,101235.34
2022-12-10T13:36:49.662Z,101235.28
2022-12-10T13:39:07.813Z,101242.28
2022-12-10T13:41:27.968Z,101248.31
2022-12-10T13:43:53.919Z,101250.03
2022-12-10T13:46:41.530Z,101247.19
2022-12-10T13:48:42.999Z,101245.38
2022-12-10T13:50:59.628Z,101248.09
2022-12-10T13:53:16.312Z,101253.38
2022-12-10T13:55:24.081Z,101248.25
2022-12-10T13:57:47.129Z,101252.59
2022-12-10T13:59:49.400Z,101243.94
2022-12-10T14:02:27.938Z,101253.50
2022-12-10T14:04:47.790Z,101248.97
2022-12-10T14:06:51.883Z,101252.50
2022-12-10T14:09:18.614Z,101256.00
2022-12-10T14:11:24.518Z,101264.50
2022-12-10T14:13:37.478Z,101262.66
2022-12-10T14:15:39.210Z,101260.06
2022-12-10T14:17:43.786Z,101269.56
2022-12-10T14:19:47.978Z,101270.47
2022-12-10T14:21:49.620Z,101267.94
2022-12-10T14:23:56.287Z,101270.59
2022-12-10T14:25:58.266Z,101273.03
2022-12-10T14:27:59.883Z,101271.25
2022-12-10T14:30:23.070Z,101272.88
2022-12-10T14:32:33.171Z,101273.66
2022-12-10T14:34:34.641Z,101278.75
2022-12-10T14:36:44.640Z,101277.88
2022-12-10T14:38:48.609Z,101277.91
2022-12-10T14:40:50.454Z,101273.69
2022-12-10T14:43:03.420Z,101282.47
2022-12-10T14:45:06.579Z,101283.41
2022-12-10T14:47:16.724Z,101285.19
2022-12-10T14:49:23.101Z,101283.47
2022-12-10T14:51:27.433Z,101285.13
2022-12-10T14:53:29.534Z,101286.88
2022-12-10T14:55:31.095Z,101283.38
2022-12-10T14:57:39.125Z,101285.09
2022-12-10T15:00:03.975Z,101283.25
2022-12-10T15:02:21.362Z,101291.06
2022-12-10T15:04:27.027Z,101289.34
2022-12-10T15:06:29.118Z,101284.09
2022-12-10T15:08:30.764Z,101283.22
2022-12-10T15:10:39.510Z,101281.47
2022-12-10T15:12:46.429Z,101279.63
2022-12-10T15:14:48.673Z,101282.19
2022-12-10T15:16:50.527Z,101283.94
2022-12-10T15:18:52.120Z,101280.50
2022-12-10T15:21:03.559Z,101284.88
2022-12-10T15:23:26.310Z,101287.44
2022-12-10T15:25:29.971Z,101278.75
2022-12-10T15:27:31.467Z,101289.19
2022-12-10T15:29:35.577Z,101283.13
2022-12-10T15:31:37.179Z,101284.84
2022-12-10T15:33:42.144Z,101290.09
2022-12-10T15:35:43.609Z,101289.25
2022-12-10T15:37:51.722Z,101290.94
2022-12-10T15:39:59.122Z,101288.31
2022-12-10T15:42:05.204Z,101291.72
2022-12-10T15:44:17.514Z,101291.75
2022-12-10T15:46:19.620Z,101284.81
2022-12-10T15:48:21.683Z,101277.03
2022-12-10T15:50:23.202Z,101284.81
2022-12-10T15:52:30.463Z,101286.56
2022-12-10T15:54:37.427Z,101290.03
2022-12-10T15:56:38.941Z,101290.88
2022-12-10T15:58:41.933Z,101283.06
2022-12-10T16:00:47.789Z,101292.63
2022-12-10T16:03:05.224Z,101288.31
2022-12-10T16:05:22.073Z,101292.59
2022-12-10T16:07:23.747Z,101287.38
2022-12-10T16:09:25.242Z,101288.22
2022-12-10T16:11:27.011Z,101296.03
2022-12-10T16:13:32.904Z,101295.13
2022-12-10T16:15:42.264Z,101292.53
2022-12-10T16:17:43.861Z,101291.66
2022-12-10T16:19:45.672Z,101293.41
2022-12-10T16:21:49.386Z,101290.81
2022-12-10T16:23:50.912Z,101294.25
2022-12-10T16:25:52.562Z,101295.13
2022-12-10T16:27:54.124Z,101294.25
2022-12-10T16:29:55.573Z,101292.44
2022-12-10T16:31:57.085Z,101288.94
2022-12-10T16:33:58.683Z,101286.41
2022-12-10T16:36:03.014Z,101292.44
2022-12-10T16:38:10.225Z,101295.00
2022-12-10T16:40:14.570Z,101299.31
2022-12-10T16:42:16.311Z,101288.91
2022-12-10T16:44:17.759Z,101289.78
2022-12-10T16:46:19.356Z,101294.13
2022-12-10T16:48:21.546Z,101294.09
2022-12-10T16:50:23.405Z,101296.59
2022-12-10T16:52:24.920Z,101295.69
2022-12-10T16:54:27.123Z,101297.44
2022-12-10T16:56:29.178Z,101293.09
2022-12-10T16:58:30.636Z,101293.06
2022-12-10T17:00:32.101Z,101289.63
2022-12-10T17:02:33.707Z,101295.69
2022-12-10T17:04:35.306Z,101300.00
2022-12-10T17:06:36.807Z,101300.00
2022-12-10T17:08:38.294Z,101286.03
2022-12-10T17:10:58.083Z,101293.81
2022-12-10T17:12:59.580Z,101296.44
2022-12-10T17:15:02.027Z,101291.22
2022-12-10T17:17:04.604Z,101292.94
2022-12-10T17:19:06.061Z,101294.59
2022-12-10T17:21:07.590Z,101293.63
2022-12-10T17:23:09.034Z,101303.13
2022-12-10T17:25:10.610Z,101294.47
2022-12-10T17:27:16.280Z,101300.50
2022-12-10T17:29:26.703Z,101286.63
2022-12-10T17:31:28.207Z,101287.44
2022-12-10T17:33:29.687Z,101294.41
2022-12-10T17:35:31.220Z,101290.06
2022-12-10T17:37:34.014Z,101297.00
2022-12-10T17:39:35.453Z,101300.44
2022-12-10T17:41:38.659Z,101296.09
2022-12-10T17:43:40.109Z,101290.00
2022-12-10T17:45:42.628Z,101297.72
2022-12-10T17:47:45.160Z,101300.31
2022-12-10T17:49:46.605Z,101301.16
2022-12-10T17:51:48.129Z,101308.84
2022-12-10T17:53:49.684Z,101307.06
2022-12-10T17:55:56.423Z,101306.97
2022-12-10T17:57:59.293Z,101316.50
2022-12-10T18:00:00.865Z,101313.06
2022-12-10T18:02:02.628Z,101322.50
2022-12-10T18:04:04.272Z,101325.00
2022-12-10T18:06:13.909Z,101325.09
2022-12-10T18:08:18.917Z,101321.59
2022-12-10T18:10:27.047Z,101325.09
2022-12-10T18:12:28.630Z,101325.09
2022-12-10T18:14:30.114Z,101330.34
2022-12-10T18:16:34.345Z,101332.03
2022-12-10T18:18:35.979Z,101335.56
2022-12-10T18:20:40.091Z,101335.50
2022-12-10T18:22:41.634Z,101338.94
2022-12-10T18:24:43.193Z,101335.44
2022-12-10T18:26:45.045Z,101331.13
2022-12-10T18:28:55.694Z,101339.06
2022-12-10T18:31:02.639Z,101339.13
2022-12-10T18:33:04.351Z,101333.94
2022-12-10T18:35:06.151Z,101329.44
2022-12-10T18:37:10.560Z,101337.28
2022-12-10T18:39:17.456Z,101333.88
2022-12-10T18:41:19.505Z,101335.63
2022-12-10T18:43:20.996Z,101337.41
2022-12-10T18:45:22.476Z,101343.50
2022-12-10T18:47:23.949Z,101345.25
2022-12-10T18:49:25.956Z,101339.84
2022-12-10T18:51:27.504Z,101331.97
2022-12-10T18:53:29.010Z,101338.94
2022-12-10T18:55:30.562Z,101339.69
2022-12-10T18:57:35.419Z,101347.44
2022-12-10T18:59:40.914Z,101340.56
2022-12-10T19:01:42.602Z,101348.41
2022-12-10T19:03:48.421Z,101345.00
2022-12-10T19:05:50.740Z,101348.53
2022-12-10T19:07:52.217Z,101352.03
2022-12-10T19:09:54.134Z,101347.75
2022-12-10T19:11:55.629Z,101350.38
2022-12-10T19:13:57.264Z,101351.25
2022-12-10T19:15:59.390Z,101351.19
2022-12-10T19:18:03.628Z,101349.34
2022-12-10T19:20:07.057Z,101347.66
2022-12-10T19:22:08.519Z,101349.44
2022-12-10T19:24:11.858Z,101347.72
2022-12-10T19:26:35.575Z,101342.59
2022-12-10T19:28:37.038Z,101344.31
2022-12-10T19:30:38.739Z,101333.94
2022-12-10T19:32:40.202Z,101340.03
2022-12-10T19:34:42.026Z,101336.59
2022-12-10T19:36:43.984Z,101343.56
2022-12-10T19:38:45.897Z,101338.38
2022-12-10T19:40:47.486Z,101338.28
2022-12-10T19:42:49.479Z,101328.66
2022-12-10T19:44:51.004Z,101342.50
2022-12-10T19:46:52.540Z,101343.38
2022-12-10T19:48:54.139Z,101342.50
2022-12-10T19:50:55.604Z,101339.94
2022-12-10T19:52:57.382Z,101347.72
2022-12-10T19:54:58.845Z,101340.69
2022-12-10T19:57:00.485Z,101345.00
2022-12-10T19:59:14.530Z,101338.03
2022-12-10T20:01:17.141Z,101343.19
2022-12-10T20:03:18.947Z,101342.38
2022-12-10T20:05:21.257Z,101353.59
2022-12-10T20:07:22.898Z,101342.38
2022-12-10T20:09:27.402Z,101350.16
2022-12-10T20:11:29.723Z,101346.66
2022-12-10T20:13:31.171Z,101344.91
2022-12-10T20:15:33.818Z,101340.56
2022-12-10T20:17:35.383Z,101348.34
2022-12-10T20:19:36.994Z,101344.94
2022-12-10T20:21:38.499Z,101355.28
2022-12-10T20:23:40.655Z,101353.47
2022-12-10T20:25:45.213Z,101354.31
2022-12-10T20:27:47.221Z,101356.84
2022-12-10T20:29:48.756Z,101351.63
2022-12-10T20:31:52.622Z,101358.53
2022-12-10T20:33:54.139Z,101357.63
2022-12-10T20:35:57.215Z,101355.03
2022-12-10T20:37:58.683Z,101353.34
2022-12-10T20:40:29.624Z,101356.78
2022-12-10T20:42:21.638Z,101352.44
2022-12-10T20:44:24.410Z,101346.34
2022-12-10T20:46:30.571Z,101346.41
2022-12-10T20:48:32.036Z,101349.00
2022-12-10T20:50:33.509Z,101353.38
2022-12-10T20:52:36.578Z,101354.25
2022-12-10T20:54:38.091Z,101343.81
2022-12-10T20:56:39.943Z,101346.41
2022-12-10T20:58:42.130Z,101348.16
2022-12-10T21:00:43.630Z,101353.31
2022-12-10T21:02:45.229Z,101355.06
2022-12-10T21:04:46.713Z,101348.13
2022-12-10T21:06:48.296Z,101351.56
2022-12-10T21:08:50.158Z,101348.91
2022-12-10T21:10:51.680Z,101346.31
2022-12-10T21:12:53.164Z,101343.72
2022-12-10T21:15:00.806Z,101347.16
2022-12-10T21:17:07.287Z,101339.38
2022-12-10T21:19:11.513Z,101341.97
2022-12-10T21:21:14.428Z,101341.16
2022-12-10T21:23:19.163Z,101342.88
2022-12-10T21:25:20.620Z,101342.81
2022-12-10T21:27:22.083Z,101338.47
2022-12-10T21:29:25.159Z,101349.66
2022-12-10T21:31:26.778Z,101347.03
2022-12-10T21:33:28.446Z,101349.59
2022-12-10T21:35:31.844Z,101343.47
2022-12-10T21:37:33.287Z,101350.41
2022-12-10T21:39:34.724Z,101348.69
2022-12-10T21:41:54.576Z,101346.09
2022-12-10T21:43:56.378Z,101346.06
2022-12-10T21:45:57.854Z,101345.28
2022-12-10T21:48:01.223Z,101341.78
2022-12-10T21:50:02.996Z,101338.31
2022-12-10T21:52:04.743Z,101334.84
2022-12-10T21:54:06.858Z,101339.91
2022-12-10T21:56:09.924Z,101336.41
2022-12-10T21:58:12.436Z,101335.53
2022-12-10T22:00:15.350Z,101336.34
2022-12-10T22:02:16.873Z,101339.81
2022-12-10T22:04:18.306Z,101329.47
2022-12-10T22:06:24.509Z,101328.63
2022-12-10T22:08:26.050Z,101328.63
2022-12-10T22:10:27.596Z,101332.91
2022-12-10T22:12:29.061Z,101325.13
2022-12-10T22:14:30.609Z,101331.16
2022-12-10T22:16:32.125Z,101332.03
2022-12-10T22:18:33.637Z,101324.25
2022-12-10T22:20:36.800Z,101327.66
2022-12-10T22:22:38.370Z,101325.03
2022-12-10T22:24:40.087Z,101322.47
2022-12-10T22:26:41.633Z,101325.91
2022-12-10T22:28:43.350Z,101322.47
2022-12-10T22:30:44.900Z,101321.63
2022-12-10T22:32:46.570Z,101322.50
2022-12-10T22:34:48.114Z,101325.94
2022-12-10T22:36:50.354Z,101323.34
2022-12-10T22:38:51.915Z,101321.59
2022-12-10T22:40:53.366Z,101327.66
2022-12-10T22:43:10.218Z,101326.78
2022-12-10T22:45:16.506Z,101327.63
2022-12-10T22:47:17.959Z,101337.09
2022-12-10T22:49:19.417Z,101327.50
2022-12-10T22:51:20.951Z,101332.69
2022-12-10T22:53:22.409Z,101335.34
2022-12-10T22:55:23.890Z,101337.88
2022-12-10T22:57:25.430Z,101337.94
2022-12-10T22:59:28.107Z,101344.91
2022-12-10T23:01:29.877Z,101345.78
2022-12-10T23:03:31.942Z,101346.66
2022-12-10T23:05:35.878Z,101342.28
2022-12-10T23:07:37.507Z,101338.75
2022-12-10T23:09:40.819Z,101345.63
2022-12-10T23:12:02.254Z,101346.53
2022-12-10T23:14:03.776Z,101341.25
2022-12-10T23:16:07.901Z,101339.44
2022-12-10T23:18:12.469Z,101345.53
2022-12-10T23:20:14.381Z,101342.06
2022-12-10T23:22:15.966Z,101340.31
2022-12-10T23:24:17.462Z,101336.84
2022-12-10T23:26:19.969Z,101336.88
2022-12-10T23:28:21.662Z,101330.78
2022-12-10T23:30:23.452Z,101324.59
2022-12-10T23:32:24.945Z,101333.25
2022-12-10T23:34:26.558Z,101324.63
2022-12-10T23:36:28.035Z,101323.81
2022-12-10T23:38:29.498Z,101332.53
2022-12-10T23:40:30.946Z,101331.66
2022-12-10T23:42:32.836Z,101322.16
2022-12-10T23:44:34.283Z,101322.94
2022-12-10T23:46:35.808Z,101316.88
2022-12-10T23:48:37.593Z,101321.28
2022-12-10T23:50:39.115Z,101316.88
2022-12-10T23:52:40.583Z,101317.75
2022-12-10T23:54:42.679Z,101317.72